Terminal Aerodrome Forecast
Issued by NWS

Home | Current Version | Previous Version | Text Only | Print | Product List | Glossary On
Versions: 1 2 3 4 5 6 7 8 9 10 11 12 13 14 15 16 17 18
000
FTUS43 KAPX 251800 AAA
TAFAPN
TAF AMD
KAPN 251808Z 2518/2618 20008KT P6SM BKN070
     FM260100 VRB03KT P6SM VCSH SCT050 BKN090
     FM261200 23003KT P6SM VCSH OVC025=

USA.gov is the U.S. government's official web portal to all federal, state and local government web resources and services.